Thunderstorms From: 25-05-2018 05:05 Until: 26-05-2018 05:00 warning for: Thunderstorms Level: Yellow info button

Although rather usual in this region, locally or potentially dangerous phenomena are expected. (such as local winds, summer thunderstorms, rising streams or high waves) Be aware and pay attention to the latest weather updates, especially if you carry out activities exposed to weather or close to a stream or shoreline. 


Meteo18 Weather Cam more information Meteo18 Weather Cam


warning for Thunderstorms more information blitzortung!


Rain radar more information rain snow radar


Visit our other weather sites:

Template documentation
and downloads

And another site



Weather Underground History page Text

Daily Summary for November 29, 2017 Units:  Metric    English   Both
« Previous Day
Next Day »
Daily Weekly Monthly Yearly Custom
  High: Low: Average:
Temperature: -17.8 °C -17.9 °C -16.7 °C
Dew Point: -17.8 °C -18.2 °C -17.1 °C
Humidity: Humidity % 91 % 94 %
Wind Speed: 0 km/h 0 km/h 4.5 km/h
Wind Gust: 0 km/h - -
Wind:- - West
Pressure: 0 hPa 34144.4 hPa -
Precipitation: 12.7 mm    
Historical Graphs
 
 
Tabular Data for November 29, 2017
Time Temperature Dew Point Pressure Wind Wind Speed Wind Gust Humidity Rainfall Rate (Hourly)
-17.8 °C -17.8 °C 0 hPa Calm     Humidity % 0 mm
00:02 -15.4 °C -15.9 °C 34164.7 hPa Calm   7.7 km/h 94 % 0 mm
00:22 -15.7 °C -16.2 °C 34164.7 hPa Calm   2.6 km/h 94 % 0 mm
00:27 -15.7 °C -16.2 °C 34164.7 hPa Calm   2.6 km/h 94 % 0 mm
00:32 -15.8 °C -16.3 °C 34164.7 hPa Calm   2.6 km/h 94 % 0 mm
00:37 -15.8 °C -16.3 °C 34164.7 hPa Calm   2.6 km/h 94 % 0 mm
00:42 -15.9 °C -16.3 °C 34164.7 hPa Calm     95 % 0 mm
00:47 -15.9 °C -16.3 °C 34164.7 hPa Calm   2.6 km/h 95 % 0 mm
00:52 -16 °C -16.4 °C 34164.7 hPa Calm   2.6 km/h 95 % 0 mm
01:12 -15.9 °C -16.3 °C 34154.6 hPa Calm   7.7 km/h 95 % 7.62 mm
01:17 -15.9 °C -16.3 °C 34164.7 hPa West 7.7 km/h 15.6 km/h 95 % 7.62 mm
01:42 -16.1 °C -16.4 °C 34154.6 hPa Calm   7.7 km/h 95 % 7.62 mm
01:52 -16.1 °C -16.4 °C 34154.6 hPa WNW 2.6 km/h 2.6 km/h 95 % 7.62 mm
02:02 -16.1 °C -16.5 °C 34154.6 hPa Calm   2.6 km/h 95 % 0 mm
02:12 -16.1 °C -16.5 °C 34154.6 hPa Calm   2.6 km/h 95 % 0 mm
02:22 -16.2 °C -16.6 °C 34154.6 hPa Calm     95 % 0 mm
02:27 -16.2 °C -16.6 °C 34154.6 hPa Calm   2.6 km/h 95 % 0 mm
02:32 -16.2 °C -16.6 °C 34154.6 hPa Calm   2.6 km/h 95 % 0 mm
02:37 -16.2 °C -16.6 °C 34154.6 hPa Calm   2.6 km/h 95 % 0 mm
02:42 -16.1 °C -16.5 °C 34154.6 hPa Calm   2.6 km/h 95 % 0 mm
02:52 -16.2 °C -16.6 °C 34154.6 hPa Calm   2.6 km/h 95 % 0 mm
03:02 -16.1 °C -16.4 °C 34154.6 hPa NW 2.6 km/h 5.1 km/h 96 % 0 mm
03:12 -16.1 °C -16.5 °C 34154.6 hPa WNW 2.6 km/h 5.1 km/h 95 % 0 mm
03:17 -16.1 °C -16.5 °C 34154.6 hPa WNW 2.6 km/h 5.1 km/h 95 % 0 mm
03:22 -16.2 °C -16.6 °C 34154.6 hPa NW 2.6 km/h 5.1 km/h 95 % 0 mm
03:27 -16.2 °C -16.6 °C 34154.6 hPa Calm   5.1 km/h 95 % 0 mm
03:32 -16.2 °C -16.6 °C 34154.6 hPa NW 5.1 km/h 5.1 km/h 95 % 0 mm
03:42 -16.1 °C -16.4 °C 34154.6 hPa Calm   10.3 km/h 95 % 0 mm
03:47 -16.1 °C -16.4 °C 34154.6 hPa Calm   10.3 km/h 95 % 0 mm
04:02 -16.1 °C -16.4 °C 34154.6 hPa NNW 5.1 km/h 7.7 km/h 95 % 0 mm
04:22 -16.2 °C -16.6 °C 34144.4 hPa North 5.1 km/h 10.3 km/h 95 % 0 mm
04:32 -16.3 °C -16.7 °C 34144.4 hPa NNW 5.1 km/h 7.7 km/h 95 % 0 mm
04:37 -16.3 °C -16.7 °C 34144.4 hPa North 5.1 km/h 7.7 km/h 95 % 0 mm
04:42 -16.4 °C -16.8 °C 34144.4 hPa West 7.7 km/h 7.7 km/h 95 % 0 mm
04:47 -16.4 °C -16.8 °C 34144.4 hPa NW 2.6 km/h 10.3 km/h 95 % 0 mm
04:52 -16.5 °C -16.9 °C 34144.4 hPa NW 2.6 km/h 10.3 km/h 95 % 0 mm
05:02 -16.7 °C -17.1 °C 34144.4 hPa NNW 2.6 km/h 10.3 km/h 95 % 0 mm
05:07 -16.7 °C -17.1 °C 34144.4 hPa NW 5.1 km/h 7.7 km/h 95 % 0 mm
05:12 -16.8 °C -17.2 °C 34144.4 hPa NW 5.1 km/h 7.7 km/h 95 % 0 mm
05:22 -16.8 °C -17.2 °C 34144.4 hPa Calm   7.7 km/h 95 % 0 mm
05:32 -17.1 °C -17.4 °C 34144.4 hPa Calm   7.7 km/h 95 % 0 mm
05:37 -17.2 °C -17.6 °C 34154.6 hPa NW 2.6 km/h 5.1 km/h 95 % 0 mm
05:42 -17.2 °C -17.5 °C 34154.6 hPa NNW 2.6 km/h 5.1 km/h 96 % 0 mm
05:52 -17.1 °C -17.4 °C 34154.6 hPa North 2.6 km/h 7.7 km/h 96 % 0 mm
05:57 -17.1 °C -17.4 °C 34144.4 hPa NW 2.6 km/h 7.7 km/h 96 % 0 mm
06:12 -17.4 °C -17.8 °C 34154.6 hPa Calm   7.7 km/h 95 % 0 mm
06:42 -17.4 °C -17.8 °C 34154.6 hPa Calm   5.1 km/h 96 % 0 mm
06:52 -17.4 °C -17.7 °C 34154.6 hPa Calm   2.6 km/h 96 % 0 mm
06:57 -17.4 °C -17.7 °C 34144.4 hPa Calm   2.6 km/h 96 % 0 mm
07:02 -17.4 °C -17.7 °C 34154.6 hPa Calm   2.6 km/h 96 % 0 mm
07:12 -17.4 °C -17.8 °C 34154.6 hPa Calm   2.6 km/h 96 % 0 mm
07:32 -17.4 °C -17.8 °C 34154.6 hPa Calm     96 % 0 mm
07:37 -17.4 °C -17.8 °C 34154.6 hPa Calm     96 % 0 mm
07:42 -17.4 °C -17.7 °C 34164.7 hPa Calm     97 % 0 mm
07:47 -17.4 °C -17.8 °C 34164.7 hPa Calm   2.6 km/h 96 % 0 mm
07:52 -17.4 °C -17.8 °C 34164.7 hPa Calm   2.6 km/h 96 % 0 mm
08:02 -17.4 °C -17.8 °C 34164.7 hPa Calm   2.6 km/h 96 % 0 mm
08:07 -17.5 °C -17.8 °C 34164.7 hPa Calm   2.6 km/h 96 % 0 mm
08:12 -17.5 °C -17.8 °C 34164.7 hPa Calm   2.6 km/h 96 % 0 mm
08:22 -17.5 °C -17.8 °C 34164.7 hPa Calm   2.6 km/h 96 % 0 mm
08:27 -17.5 °C -17.7 °C 34178.3 hPa Calm     97 % 0 mm
08:32 -17.4 °C -17.7 °C 34178.3 hPa Calm     97 % 0 mm
08:37 -17.4 °C -17.7 °C 34178.3 hPa SE 2.6 km/h   97 % 0 mm
08:42 -17.4 °C -17.7 °C 34178.3 hPa Calm     97 % 0 mm
08:52 -17.4 °C -17.7 °C 34178.3 hPa Calm   2.6 km/h 97 % 0 mm
09:02 -17.4 °C -17.7 °C 34178.3 hPa Calm   2.6 km/h 97 % 0 mm
09:07 -17.4 °C -17.6 °C 34188.4 hPa SSW 2.6 km/h   97 % 0 mm
09:12 -17.4 °C -17.7 °C 34188.4 hPa Calm     97 % 0 mm
09:17 -17.4 °C -17.7 °C 34188.4 hPa Calm   2.6 km/h 97 % 0 mm
09:22 -17.4 °C -17.8 °C 34188.4 hPa Calm   2.6 km/h 96 % 0 mm
09:42 -17.6 °C -17.8 °C 34188.4 hPa WSW 5.1 km/h 5.1 km/h 97 % 0 mm
09:47 -17.6 °C -17.8 °C 34188.4 hPa West 2.6 km/h 7.7 km/h 97 % 0 mm
09:52 -17.6 °C -17.9 °C 34188.4 hPa Calm   7.7 km/h 96 % 0 mm
10:02 -17.6 °C -17.8 °C 34188.4 hPa SW 2.6 km/h 7.7 km/h 97 % 0 mm
10:12 -17.7 °C -18 °C 34198.6 hPa Calm   5.1 km/h 96 % 0 mm
10:17 -17.7 °C -18 °C 34198.6 hPa WSW 2.6 km/h 10.3 km/h 96 % 0 mm
10:32 -17.7 °C -18.1 °C 34198.6 hPa SSW 2.6 km/h 5.1 km/h 96 % 0 mm
10:37 -17.8 °C -18.2 °C 34198.6 hPa SSW 5.1 km/h 7.7 km/h 96 % 0 mm
10:57 -17.9 °C -18.2 °C 34198.6 hPa SW 10.3 km/h 12.9 km/h 96 % 0 mm
11:02 -17.9 °C -18.1 °C 34198.6 hPa WSW 2.6 km/h 12.9 km/h 97 % 0 mm
11:12 -17.8 °C -18.1 °C 34198.6 hPa WSW 2.6 km/h 12.9 km/h 97 % 0 mm
11:22 -17.7 °C -17.9 °C 34198.6 hPa Calm   15.6 km/h 97 % 0 mm
11:27 -17.6 °C -17.8 °C 34198.6 hPa WSW 2.6 km/h 10.3 km/h 97 % 0 mm
11:42 -17.4 °C -17.6 °C 34198.6 hPa WSW 2.6 km/h 10.3 km/h 97 % 0 mm
11:52 -17.3 °C -17.6 °C 34198.6 hPa WSW 10.3 km/h 10.3 km/h 97 % 0 mm
11:57 -17.4 °C -17.6 °C 34198.6 hPa SSW 7.7 km/h 12.9 km/h 97 % 0 mm
12:02 -17.3 °C -17.6 °C 34198.6 hPa SW 2.6 km/h 12.9 km/h 97 % 0 mm
12:27 -17.1 °C -17.3 °C 34188.4 hPa SW 10.3 km/h 10.3 km/h 97 % 0 mm
12:32 -17.1 °C -17.3 °C 34188.4 hPa SW 10.3 km/h 10.3 km/h 97 % 0 mm
12:37 -17.1 °C -17.3 °C 34188.4 hPa SSW 2.6 km/h 15.6 km/h 97 % 0 mm
12:42 -17.1 °C -17.3 °C 34188.4 hPa WSW 7.7 km/h 15.6 km/h 97 % 0 mm
12:57 -16.9 °C -17.1 °C 34188.4 hPa SW 15.6 km/h 15.6 km/h 97 % 0 mm
13:02 -16.9 °C -17.1 °C 34188.4 hPa SW 5.1 km/h 15.6 km/h 97 % 0 mm
13:17 -16.8 °C -17.1 °C 34178.3 hPa West 7.7 km/h 15.6 km/h 97 % 0 mm
13:22 -16.8 °C -17 °C 34178.3 hPa West 7.7 km/h 15.6 km/h 97 % 0 mm
13:32 -16.7 °C -16.9 °C 34178.3 hPa WSW 2.6 km/h 18.2 km/h 97 % 0 mm
13:47 -16.6 °C -16.8 °C 34178.3 hPa WSW 7.7 km/h 18.2 km/h 97 % 0 mm
13:52 -16.6 °C -16.8 °C 34178.3 hPa WSW 5.1 km/h 18.2 km/h 97 % 0 mm
14:02 -16.5 °C -16.7 °C 34178.3 hPa WSW 10.3 km/h 18.2 km/h 97 % 0 mm
14:12 -16.4 °C -16.6 °C 34178.3 hPa SW 7.7 km/h 18.2 km/h 97 % 0 mm
14:32 -16.3 °C -16.7 °C 34178.3 hPa West 18.2 km/h 20.8 km/h 95 % 0 mm
14:47 -16.2 °C -16.7 °C 34178.3 hPa WSW 15.6 km/h 20.8 km/h 93 % 0 mm
14:52 -16 °C -16.6 °C 34178.3 hPa West 5.1 km/h 20.8 km/h 93 % 0 mm
14:57 -15.9 °C -16.6 °C 34178.3 hPa SW 10.3 km/h 18.2 km/h 92 % 0 mm
15:02 -15.9 °C -16.6 °C 34178.3 hPa West 12.9 km/h 18.2 km/h 92 % 0 mm
15:12 -15.9 °C -16.7 °C 34178.3 hPa West 2.6 km/h 18.2 km/h 91 % 0 mm
15:17 -15.9 °C -16.6 °C 34178.3 hPa WSW 5.1 km/h 18.2 km/h 92 % 0 mm
15:22 -15.9 °C -16.6 °C 34178.3 hPa WNW 7.7 km/h 18.2 km/h 92 % 0 mm
15:37 -16.2 °C -16.8 °C 34178.3 hPa SW 7.7 km/h 18.2 km/h 92 % 0 mm
15:42 -16.2 °C -16.8 °C 34178.3 hPa West 7.7 km/h 18.2 km/h 92 % 0 mm
15:52 -16.2 °C -16.7 °C 34178.3 hPa WSW 2.6 km/h 18.2 km/h 93 % 0 mm
16:07 -16.2 °C -16.8 °C 34178.3 hPa West 10.3 km/h 15.6 km/h 93 % 0 mm
16:12 -16.2 °C -16.8 °C 34178.3 hPa WSW 5.1 km/h 15.6 km/h 93 % 0 mm
16:17 -16.3 °C -16.8 °C 34178.3 hPa SW 5.1 km/h 15.6 km/h 93 % 0 mm
16:22 -16.3 °C -16.8 °C 34178.3 hPa West 7.7 km/h 15.6 km/h 93 % 0 mm
16:27 -16.3 °C -16.9 °C 34178.3 hPa West 7.7 km/h 18.2 km/h 93 % 0 mm
16:32 -16.3 °C -16.9 °C 34178.3 hPa WSW 7.7 km/h 18.2 km/h 93 % 0 mm
16:42 -16.3 °C -16.9 °C 34178.3 hPa WSW 15.6 km/h 20.8 km/h 93 % 0 mm
16:52 -16.3 °C -16.9 °C 34188.4 hPa West 7.7 km/h 23.3 km/h 93 % 0 mm
17:02 -16.4 °C -17 °C 34178.3 hPa West 12.9 km/h 20.8 km/h 93 % 0 mm
17:12 -16.4 °C -17 °C 34188.4 hPa West 7.7 km/h 25.9 km/h 93 % 0 mm
17:17 -16.5 °C -17.1 °C 34188.4 hPa West 7.7 km/h 20.8 km/h 93 % 0 mm
17:22 -16.5 °C -17.1 °C 34188.4 hPa WNW 7.7 km/h 20.8 km/h 93 % 0 mm
17:27 -16.6 °C -17.1 °C 34188.4 hPa West 7.7 km/h 23.3 km/h 93 % 0 mm
17:32 -16.6 °C -17.1 °C 34188.4 hPa West 12.9 km/h 23.3 km/h 93 % 0 mm
17:52 -16.6 °C -17.1 °C 34198.6 hPa WNW 5.1 km/h 20.8 km/h 94 % 0 mm
18:02 -16.7 °C -17.2 °C 34198.6 hPa West 10.3 km/h 18.2 km/h 94 % 0 mm
18:17 -16.6 °C -17.1 °C 34198.6 hPa West 12.9 km/h 12.9 km/h 94 % 0 mm
18:22 -16.6 °C -17.1 °C 34198.6 hPa WNW 12.9 km/h 20.8 km/h 94 % 0 mm
18:32 -16.7 °C -17.2 °C 34198.6 hPa West 10.3 km/h 23.3 km/h 94 % 0 mm
18:37 -16.7 °C -17.2 °C 34212.1 hPa WNW 7.7 km/h 23.3 km/h 94 % 0 mm
18:52 -16.7 °C -17.2 °C 34212.1 hPa West 10.3 km/h 20.8 km/h 94 % 0 mm
18:57 -16.7 °C -17.2 °C 34212.1 hPa WNW 12.9 km/h 20.8 km/h 94 % 0 mm
19:12 -16.6 °C -17.1 °C 34212.1 hPa West 5.1 km/h 23.3 km/h 94 % 0 mm
19:17 -16.7 °C -17.2 °C 34212.1 hPa WNW 5.1 km/h 18.2 km/h 94 % 0 mm
19:32 -16.7 °C -17.2 °C 34222.3 hPa WSW 10.3 km/h 15.6 km/h 94 % 0 mm
19:47 -16.6 °C -17.1 °C 34222.3 hPa West 18.2 km/h 23.3 km/h 94 % 0 mm
20:02 -16.6 °C -17.1 °C 34222.3 hPa WSW 5.1 km/h 18.2 km/h 94 % 0 mm
20:12 -16.6 °C -17.1 °C 34222.3 hPa WSW 7.7 km/h 18.2 km/h 94 % 0 mm
20:17 -16.6 °C -17.1 °C 34222.3 hPa WSW 5.1 km/h 10.3 km/h 94 % 0 mm
20:22 -16.6 °C -17.1 °C 34222.3 hPa West 7.7 km/h 10.3 km/h 94 % 0 mm
20:27 -16.7 °C -17.2 °C 34222.3 hPa WNW 5.1 km/h 10.3 km/h 94 % 0 mm
20:32 -16.7 °C -17.2 °C 34235.8 hPa WNW 2.6 km/h 10.3 km/h 94 % 0 mm
20:42 -16.6 °C -17.1 °C 34235.8 hPa WNW 7.7 km/h 10.3 km/h 94 % 0 mm
20:47 -16.6 °C -17.1 °C 34235.8 hPa West 2.6 km/h 23.3 km/h 94 % 0 mm
20:52 -16.6 °C -17.1 °C 34235.8 hPa WNW 7.7 km/h 23.3 km/h 94 % 0 mm
20:57 -16.6 °C -17.1 °C 34235.8 hPa WNW 15.6 km/h 23.3 km/h 94 % 0 mm
21:02 -16.6 °C -17.1 °C 34235.8 hPa West 12.9 km/h 23.3 km/h 94 % 0 mm
21:12 -16.6 °C -17.1 °C 34235.8 hPa West 5.1 km/h 15.6 km/h 94 % 0 mm
21:17 -16.6 °C -17.1 °C 34235.8 hPa West 10.3 km/h 12.9 km/h 94 % 7.62 mm
21:27 -16.5 °C -17 °C 34235.8 hPa WNW 10.3 km/h 15.6 km/h 94 % 7.62 mm
21:32 -16.4 °C -16.9 °C 34235.8 hPa West 2.6 km/h 15.6 km/h 94 % 7.62 mm
21:42 -16.4 °C -16.9 °C 34246 hPa Calm   15.6 km/h 94 % 7.62 mm
21:47 -16.4 °C -16.9 °C 34246 hPa WNW 5.1 km/h 12.9 km/h 94 % 7.62 mm
21:57 -16.3 °C -16.8 °C 34246 hPa West 7.7 km/h 20.8 km/h 94 % 7.62 mm
22:02 -16.3 °C -16.8 °C 34235.8 hPa NW 7.7 km/h 20.8 km/h 94 % 7.62 mm
22:07 -16.3 °C -16.9 °C 34235.8 hPa WNW 12.9 km/h 20.8 km/h 93 % 7.62 mm
22:12 -16.3 °C -16.8 °C 34246 hPa West 5.1 km/h 20.8 km/h 93 % 7.62 mm
22:17 -16.3 °C -16.8 °C 34246 hPa West 2.6 km/h 15.6 km/h 93 % 0 mm
22:22 -16.3 °C -16.8 °C 34235.8 hPa West 2.6 km/h 15.6 km/h 93 % 0 mm
22:32 -16.3 °C -16.9 °C 34246 hPa Calm   12.9 km/h 93 % 0 mm
22:37 -16.3 °C -16.9 °C 34246 hPa WNW 7.7 km/h 7.7 km/h 93 % 0 mm
22:42 -16.3 °C -16.9 °C 34246 hPa WNW 2.6 km/h 7.7 km/h 93 % 0 mm
22:52 -16.3 °C -16.9 °C 34246 hPa Calm   7.7 km/h 93 % 0 mm
23:02 -16.3 °C -16.9 °C 34246 hPa Calm   5.1 km/h 93 % 0 mm
23:12 -16.3 °C -16.9 °C 34246 hPa West 2.6 km/h 2.6 km/h 93 % 0 mm
23:17 -16.3 °C -16.9 °C 34246 hPa West 2.6 km/h 2.6 km/h 93 % 0 mm
23:22 -16.3 °C -16.9 °C 34246 hPa Calm   2.6 km/h 93 % 0 mm
23:32 -16.3 °C -16.8 °C 34235.8 hPa Calm   5.1 km/h 93 % 0 mm
23:42 -16.3 °C -16.8 °C 34246 hPa West 2.6 km/h 7.7 km/h 93 % 0 mm
23:47 -16.2 °C -16.8 °C 34246 hPa WNW 5.1 km/h 7.7 km/h 93 % 0 mm
23:57 -16.2 °C -16.8 °C 34246 hPa West 5.1 km/h 7.7 km/h 93 % 0 mm
Meteo18
Compliments of Weather Underground - 4 mb

Script developed by  Jim McMurry - jmcmurry@mwt.net Adapted for the template by  Wim van der Kuil - Leuven-Template.eu

You find our weather info also at:

European Weather Network

Weather Underground

Equipment we use:

Weather-station
Davis Vue

Weather-program
Meteobridge

Weather-server
Raspberry PI 2 B+

Provider
1 and 1

Davis Vue

Meteobridge

Raspberry PI 2 B+

1 and 1